createdAt,value
2023-02-02T00:00:07.562Z,9.747568
2023-02-02T00:01:07.551Z,9.747531
2023-02-02T00:02:08.512Z,9.747446
2023-02-02T00:03:07.620Z,9.747563
2023-02-02T00:04:07.517Z,9.747417
2023-02-02T00:05:07.503Z,9.747462
2023-02-02T00:06:07.506Z,9.747380
2023-02-02T00:07:07.517Z,9.747467
2023-02-02T00:08:07.480Z,9.747560
2023-02-02T00:09:07.463Z,9.747510
2023-02-02T00:10:07.460Z,9.747540
2023-02-02T00:11:07.488Z,9.747454
2023-02-02T00:12:07.445Z,9.747395
2023-02-02T00:13:07.445Z,9.747400
2023-02-02T00:14:07.438Z,9.747441
2023-02-02T00:15:07.423Z,9.747474
2023-02-02T00:16:07.478Z,9.747530
2023-02-02T00:17:07.400Z,9.747488
2023-02-02T00:18:07.393Z,9.747347
2023-02-02T00:19:07.397Z,9.747419
2023-02-02T00:20:07.373Z,9.747403
2023-02-02T00:21:07.409Z,9.747345
2023-02-02T00:22:07.407Z,9.747357
2023-02-02T00:23:07.353Z,9.747318
2023-02-02T00:24:07.358Z,9.747308
2023-02-02T00:25:07.345Z,9.747384
2023-02-02T00:26:07.357Z,9.747434
2023-02-02T00:27:07.344Z,9.747486
2023-02-02T00:28:07.317Z,9.747365
2023-02-02T00:29:08.325Z,9.747379
2023-02-02T00:30:07.331Z,9.747258
2023-02-02T00:31:07.387Z,9.747377
2023-02-02T00:32:07.287Z,9.747362
2023-02-02T00:33:07.296Z,9.747356
2023-02-02T00:34:07.270Z,9.747355
2023-02-02T00:35:07.273Z,9.747383
2023-02-02T00:36:07.304Z,9.747478
2023-02-02T00:37:07.259Z,9.747407
2023-02-02T00:38:07.259Z,9.747384
2023-02-02T00:39:07.249Z,9.747401
2023-02-02T00:40:07.250Z,9.747412
2023-02-02T00:41:07.273Z,9.747375
2023-02-02T00:42:07.216Z,9.747447
2023-02-02T00:43:07.208Z,9.747446
2023-02-02T00:44:07.205Z,9.747454
2023-02-02T00:45:07.205Z,9.747331
2023-02-02T00:46:07.255Z,9.747324
2023-02-02T00:47:07.188Z,9.747384
2023-02-02T00:48:07.177Z,9.747418
2023-02-02T00:49:07.171Z,9.747445
2023-02-02T00:50:07.171Z,9.747460
2023-02-02T00:51:07.190Z,9.747381
2023-02-02T00:52:07.157Z,9.747456
2023-02-02T00:53:07.140Z,9.747318
2023-02-02T00:54:07.134Z,9.747269
2023-02-02T00:55:07.124Z,9.747332
2023-02-02T00:56:07.151Z,9.747275
2023-02-02T00:57:07.125Z,9.747347
2023-02-02T00:58:07.118Z,9.747399
2023-02-02T00:59:07.117Z,9.747379
2023-02-02T01:00:07.100Z,9.747355
2023-02-02T01:01:07.110Z,9.747335
2023-02-02T01:02:07.137Z,9.747280
2023-02-02T01:03:07.104Z,9.747303
2023-02-02T01:04:07.069Z,9.747323
2023-02-02T01:05:07.062Z,9.747355
2023-02-02T01:06:07.075Z,9.747302
2023-02-02T01:07:07.030Z,9.747333
2023-02-02T01:08:07.032Z,9.747417
2023-02-02T01:09:07.019Z,9.747368
2023-02-02T01:10:07.132Z,9.747368
2023-02-02T01:11:07.034Z,9.747353
2023-02-02T01:12:06.996Z,9.747439
2023-02-02T01:13:06.990Z,9.747423
2023-02-02T01:14:06.987Z,9.747348
2023-02-02T01:15:06.987Z,9.747294
2023-02-02T01:16:07.036Z,9.747324
2023-02-02T01:17:06.948Z,9.747365
2023-02-02T01:18:06.958Z,9.747289
2023-02-02T01:19:06.962Z,9.747524
2023-02-02T01:20:06.926Z,9.747272
2023-02-02T01:21:06.959Z,9.747464
2023-02-02T01:22:06.911Z,9.747433
2023-02-02T01:23:06.909Z,9.747355
2023-02-02T01:24:06.914Z,9.747478
2023-02-02T01:25:06.902Z,9.747521
2023-02-02T01:26:06.970Z,9.747543
2023-02-02T01:27:06.884Z,9.747421
2023-02-02T01:28:06.896Z,9.747548
2023-02-02T01:29:06.898Z,9.747408
2023-02-02T01:30:06.855Z,9.747357
2023-02-02T01:31:06.925Z,9.747377
2023-02-02T01:32:06.859Z,9.747353
2023-02-02T01:33:06.827Z,9.747407
2023-02-02T01:34:06.835Z,9.747410
2023-02-02T01:35:06.886Z,9.747324
2023-02-02T01:36:06.801Z,9.747351
2023-02-02T01:37:06.821Z,9.747449
2023-02-02T01:38:06.800Z,9.747446
2023-02-02T01:39:06.790Z,9.747421
2023-02-02T01:40:06.775Z,9.747394
2023-02-02T01:41:06.790Z,9.747457
2023-02-02T01:42:06.798Z,9.747458
2023-02-02T01:43:06.745Z,9.747475
2023-02-02T01:44:06.746Z,9.747496
2023-02-02T01:45:06.747Z,9.747426
2023-02-02T01:46:06.769Z,9.747379
2023-02-02T01:47:06.776Z,9.747418
2023-02-02T01:48:06.700Z,9.747327
2023-02-02T01:49:07.713Z,9.747569
2023-02-02T01:50:06.698Z,9.747549
2023-02-02T01:51:06.689Z,9.747580
2023-02-02T01:52:06.717Z,9.747646
2023-02-02T01:53:06.690Z,9.747411
2023-02-02T01:54:06.683Z,9.747392
2023-02-02T01:55:06.655Z,9.747348
2023-02-02T01:56:06.657Z,9.747596
2023-02-02T01:57:06.678Z,9.747483
2023-02-02T01:58:06.653Z,9.747569
2023-02-02T01:59:06.649Z,9.747582
2023-02-02T02:00:06.615Z,9.747454
2023-02-02T02:01:06.646Z,9.747507
2023-02-02T02:02:06.721Z,9.747523
2023-02-02T02:03:06.589Z,9.747555
2023-02-02T02:04:06.599Z,9.747490
2023-02-02T02:05:06.592Z,9.747465
2023-02-02T02:06:06.649Z,9.747442
2023-02-02T02:07:06.597Z,9.747501
2023-02-02T02:08:06.707Z,9.747470
2023-02-02T02:09:06.559Z,9.747582
2023-02-02T02:10:06.573Z,9.747548
2023-02-02T02:11:06.544Z,9.747435
2023-02-02T02:12:06.570Z,9.747483
2023-02-02T02:13:06.539Z,9.747550
2023-02-02T02:14:06.527Z,9.747458
2023-02-02T02:15:06.532Z,9.747337
2023-02-02T02:16:06.546Z,9.747398
2023-02-02T02:17:06.535Z,9.747499
2023-02-02T02:18:06.492Z,9.747478
2023-02-02T02:19:06.493Z,9.747632
2023-02-02T02:20:06.511Z,9.747637
2023-02-02T02:21:06.487Z,9.747668
2023-02-02T02:22:06.512Z,9.747496
2023-02-02T02:23:06.458Z,9.747754
2023-02-02T02:24:06.455Z,9.747690
2023-02-02T02:25:06.444Z,9.747673
2023-02-02T02:26:06.436Z,9.747737
2023-02-02T02:27:06.473Z,9.747708
2023-02-02T02:28:06.420Z,9.747724
2023-02-02T02:29:06.434Z,9.747525
2023-02-02T02:30:06.441Z,9.747356
2023-02-02T02:31:06.517Z,9.747379
2023-02-02T02:32:06.401Z,9.747369
2023-02-02T02:33:06.436Z,9.747404
2023-02-02T02:34:06.373Z,9.747416
2023-02-02T02:35:06.399Z,9.747439
2023-02-02T02:36:06.391Z,9.747431
2023-02-02T02:37:06.354Z,9.747431
2023-02-02T02:38:06.363Z,9.747481
2023-02-02T02:39:06.356Z,9.747421
2023-02-02T02:40:06.338Z,9.747430
2023-02-02T02:41:06.341Z,9.747471
2023-02-02T02:42:06.342Z,9.747474
2023-02-02T02:43:06.335Z,9.747478
2023-02-02T02:44:06.329Z,9.747442
2023-02-02T02:45:06.292Z,9.747484
2023-02-02T02:46:06.344Z,9.747462
2023-02-02T02:47:06.281Z,9.747447
2023-02-02T02:48:06.299Z,9.747446
2023-02-02T02:49:06.274Z,9.747516
2023-02-02T02:50:06.270Z,9.747484
2023-02-02T02:51:06.268Z,9.747547
2023-02-02T02:52:06.235Z,9.747478
2023-02-02T02:53:06.275Z,9.747444
2023-02-02T02:54:06.244Z,9.747434
2023-02-02T02:55:06.219Z,9.747388
2023-02-02T02:56:06.214Z,9.747416
2023-02-02T02:57:06.200Z,9.747355
2023-02-02T02:58:06.224Z,9.747365
2023-02-02T02:59:06.177Z,9.747476
2023-02-02T03:00:06.181Z,9.747396
2023-02-02T03:01:06.169Z,9.747478
2023-02-02T03:02:06.141Z,9.747538
2023-02-02T03:03:07.213Z,9.747413
2023-02-02T03:04:06.138Z,9.747441
2023-02-02T03:05:06.129Z,9.747392
2023-02-02T03:06:06.123Z,9.747381
2023-02-02T03:07:06.116Z,9.747446
2023-02-02T03:08:06.130Z,9.747463
2023-02-02T03:09:06.106Z,9.747500
2023-02-02T03:10:06.100Z,9.747457
2023-02-02T03:11:06.099Z,9.747561
2023-02-02T03:12:06.090Z,9.747541
2023-02-02T03:13:06.118Z,9.747490
2023-02-02T03:14:06.087Z,9.747520
2023-02-02T03:15:06.095Z,9.747499
2023-02-02T03:16:06.106Z,9.747611
2023-02-02T03:17:06.054Z,9.747431
2023-02-02T03:18:06.072Z,9.747386
2023-02-02T03:19:06.064Z,9.747524
2023-02-02T03:20:06.023Z,9.747734
2023-02-02T03:21:06.053Z,9.747942
2023-02-02T03:22:06.013Z,9.747724
2023-02-02T03:23:06.030Z,9.747662
2023-02-02T03:24:06.016Z,9.747606
2023-02-02T03:25:05.987Z,9.747710
2023-02-02T03:26:06.041Z,9.747639
2023-02-02T03:27:05.975Z,9.747610
2023-02-02T03:28:06.042Z,9.747583
2023-02-02T03:29:05.980Z,9.747849
2023-02-02T03:30:05.954Z,9.747744
2023-02-02T03:31:06.006Z,9.747687
2023-02-02T03:32:05.921Z,9.747504
2023-02-02T03:33:05.943Z,9.747755
2023-02-02T03:34:05.914Z,9.747543
2023-02-02T03:35:05.907Z,9.747570
2023-02-02T03:36:05.895Z,9.747517
2023-02-02T03:37:05.894Z,9.747491
2023-02-02T03:38:05.913Z,9.747526
2023-02-02T03:39:05.891Z,9.747563
2023-02-02T03:40:05.894Z,9.747381
2023-02-02T03:41:05.854Z,9.747561
2023-02-02T03:42:05.873Z,9.747627
2023-02-02T03:43:05.867Z,9.747508
2023-02-02T03:44:05.844Z,9.747506
2023-02-02T03:45:05.828Z,9.747500
2023-02-02T03:46:05.861Z,9.747664
2023-02-02T03:47:05.813Z,9.747477
2023-02-02T03:48:05.933Z,9.747540
2023-02-02T03:49:05.804Z,9.747410
2023-02-02T03:50:05.793Z,9.747483
2023-02-02T03:51:05.787Z,9.747494
2023-02-02T03:52:05.784Z,9.747410
2023-02-02T03:53:05.803Z,9.747610
2023-02-02T03:54:05.843Z,9.747589
2023-02-02T03:55:05.754Z,9.747659
2023-02-02T03:56:05.745Z,9.747470
2023-02-02T03:57:05.769Z,9.747549
2023-02-02T03:58:05.764Z,9.747458
2023-02-02T03:59:05.730Z,9.747327
2023-02-02T04:00:05.718Z,9.747473
2023-02-02T04:01:05.730Z,9.747475
2023-02-02T04:02:05.731Z,9.747418
2023-02-02T04:03:05.794Z,9.747404
2023-02-02T04:04:05.690Z,9.747579
2023-02-02T04:05:05.707Z,9.747495
2023-02-02T04:06:05.684Z,9.747368
2023-02-02T04:07:05.675Z,9.747449
2023-02-02T04:08:05.715Z,9.747318
2023-02-02T04:09:05.666Z,9.747335
2023-02-02T04:10:05.647Z,9.747486
2023-02-02T04:11:05.660Z,9.747361
2023-02-02T04:12:05.631Z,9.747303
2023-02-02T04:13:05.697Z,9.747342
2023-02-02T04:14:05.629Z,9.747381
2023-02-02T04:15:05.621Z,9.747368
2023-02-02T04:16:05.651Z,9.747232
2023-02-02T04:17:05.593Z,9.747337
2023-02-02T04:18:05.597Z,9.747334
2023-02-02T04:19:05.650Z,9.747248
2023-02-02T04:20:05.576Z,9.747433
2023-02-02T04:21:05.575Z,9.747453
2023-02-02T04:22:05.564Z,9.747547
2023-02-02T04:23:05.575Z,9.747499
2023-02-02T04:24:05.573Z,9.747351
2023-02-02T04:25:05.617Z,9.747308
2023-02-02T04:26:05.566Z,9.747483
2023-02-02T04:27:05.529Z,9.747393
2023-02-02T04:28:05.520Z,9.747347
2023-02-02T04:29:05.546Z,9.747289
2023-02-02T04:30:05.523Z,9.747505
2023-02-02T04:31:05.623Z,9.747561
2023-02-02T04:32:05.493Z,9.747453
2023-02-02T04:33:05.494Z,9.747602
2023-02-02T04:34:05.517Z,9.747477
2023-02-02T04:35:05.470Z,9.747535
2023-02-02T04:36:05.491Z,9.747484
2023-02-02T04:37:05.470Z,9.747442
2023-02-02T04:38:05.434Z,9.747379
2023-02-02T04:39:05.461Z,9.747523
2023-02-02T04:40:05.447Z,9.747432
2023-02-02T04:41:05.467Z,9.747363
2023-02-02T04:42:05.424Z,9.747281
2023-02-02T04:43:05.426Z,9.747254
2023-02-02T04:44:05.459Z,9.747370
2023-02-02T04:45:05.425Z,9.747439
2023-02-02T04:46:05.432Z,9.747321
2023-02-02T04:47:05.388Z,9.747346
2023-02-02T04:48:05.382Z,9.747434
2023-02-02T04:49:05.382Z,9.747380
2023-02-02T04:50:05.360Z,9.747485
2023-02-02T04:51:05.355Z,9.747397
2023-02-02T04:52:05.331Z,9.747325
2023-02-02T04:53:05.347Z,9.747275
2023-02-02T04:54:05.352Z,9.747386
2023-02-02T04:55:05.313Z,9.747164
2023-02-02T04:56:05.313Z,9.747180
2023-02-02T04:57:05.296Z,9.747226
2023-02-02T05:11:25.422Z,9.747682
2023-02-02T05:12:25.567Z,9.748149
2023-02-02T05:13:25.397Z,9.747661
2023-02-02T05:14:25.418Z,9.747747
2023-02-02T05:15:25.830Z,9.747595
2023-02-02T05:16:28.517Z,9.747356
2023-02-02T05:17:25.370Z,9.747272
2023-02-02T05:18:25.361Z,9.747087
2023-02-02T05:19:25.378Z,9.747203
2023-02-02T05:20:25.348Z,9.747449
2023-02-02T05:21:25.330Z,9.747438
2023-02-02T05:22:25.329Z,9.747429
2023-02-02T05:23:25.316Z,9.747220
2023-02-02T05:24:25.337Z,9.747089
2023-02-02T05:25:25.670Z,9.746999
2023-02-02T05:26:25.390Z,9.747314
2023-02-02T05:27:25.303Z,9.747314
2023-02-02T05:28:25.383Z,9.747314
2023-02-02T05:29:25.319Z,9.746806
2023-02-02T05:30:25.256Z,9.746806
2023-02-02T05:31:25.341Z,9.747377
2023-02-02T05:32:25.244Z,9.746985
2023-02-02T05:33:25.248Z,9.746743
2023-02-02T05:34:25.275Z,9.746691
2023-02-02T05:35:25.574Z,9.747381
2023-02-02T05:36:25.219Z,9.746686
2023-02-02T05:37:25.214Z,9.746697
2023-02-02T05:38:25.207Z,9.746697
2023-02-02T05:39:25.231Z,9.746697
2023-02-02T05:40:25.197Z,9.746697
2023-02-02T05:41:25.180Z,9.746697
2023-02-02T05:42:25.313Z,9.746697
2023-02-02T05:43:25.169Z,9.746697
2023-02-02T05:44:25.191Z,9.746697
2023-02-02T05:45:25.520Z,9.746697
2023-02-02T05:46:25.143Z,9.746697
2023-02-02T05:47:25.135Z,9.746074
2023-02-02T05:48:25.131Z,9.746902
2023-02-02T05:49:25.151Z,9.747534
2023-02-02T05:50:25.116Z,9.747335
2023-02-02T05:51:25.111Z,9.747326
2023-02-02T05:52:25.100Z,9.747470
2023-02-02T05:53:25.089Z,9.747439
2023-02-02T05:54:25.220Z,9.747288
2023-02-02T05:55:25.415Z,9.747197
2023-02-02T05:56:25.075Z,9.747186
2023-02-02T05:57:25.070Z,9.747266
2023-02-02T05:58:25.145Z,9.747329
2023-02-02T05:59:25.074Z,9.747190
2023-02-02T06:00:25.080Z,9.747401
2023-02-02T06:01:25.034Z,9.747351
2023-02-02T06:02:25.036Z,9.747440
2023-02-02T06:03:25.128Z,9.747479
2023-02-02T06:04:25.038Z,9.747806
2023-02-02T06:05:25.401Z,9.747493
2023-02-02T06:06:24.992Z,9.747553
2023-02-02T06:07:24.987Z,9.747445
2023-02-02T06:08:24.982Z,9.747126
2023-02-02T06:09:24.996Z,9.746906
2023-02-02T06:10:24.964Z,9.747338
2023-02-02T06:11:24.973Z,9.747124
2023-02-02T06:12:24.960Z,9.747237
2023-02-02T06:13:24.941Z,9.747403
2023-02-02T06:14:24.966Z,9.747274
2023-02-02T06:15:25.525Z,9.747402
2023-02-02T06:16:24.924Z,9.747255
2023-02-02T06:17:24.944Z,9.747355
2023-02-02T06:18:24.898Z,9.747410
2023-02-02T06:19:24.956Z,9.747234
2023-02-02T06:20:24.893Z,9.747286
2023-02-02T06:21:24.888Z,9.747257
2023-02-02T06:22:24.877Z,9.747369
2023-02-02T06:23:24.925Z,9.747353
2023-02-02T06:24:24.899Z,9.747363
2023-02-02T06:25:25.214Z,9.747407
2023-02-02T06:26:24.939Z,9.747328
2023-02-02T06:27:24.843Z,9.747380
2023-02-02T06:28:24.835Z,9.747442
2023-02-02T06:29:24.870Z,9.747378
2023-02-02T06:30:24.896Z,9.747423
2023-02-02T06:31:25.152Z,9.747376
2023-02-02T06:32:24.809Z,9.747469
2023-02-02T06:33:24.803Z,9.747417
2023-02-02T06:34:24.857Z,9.747429
2023-02-02T06:35:25.252Z,9.747311
2023-02-02T06:36:24.838Z,9.747366
2023-02-02T06:37:24.771Z,9.747412
2023-02-02T06:38:24.768Z,9.747413
2023-02-02T06:39:24.773Z,9.747458
2023-02-02T06:40:24.746Z,9.747517
2023-02-02T06:41:24.736Z,9.747556
2023-02-02T06:42:24.733Z,9.747391
2023-02-02T06:43:24.725Z,9.747287
2023-02-02T06:44:24.753Z,9.747132
2023-02-02T06:45:25.012Z,9.747392
2023-02-02T06:46:24.733Z,9.747317
2023-02-02T06:47:26.827Z,9.747466
2023-02-02T06:48:25.729Z,9.747521
2023-02-02T06:49:24.776Z,9.747338
2023-02-02T06:50:24.671Z,9.747388
2023-02-02T06:51:24.673Z,9.747399
2023-02-02T06:52:24.659Z,9.747404
2023-02-02T06:53:24.660Z,9.747419
2023-02-02T06:54:24.712Z,9.747278
2023-02-02T06:55:25.004Z,9.747470
2023-02-02T06:56:24.615Z,9.747480
2023-02-02T06:57:24.639Z,9.747350
2023-02-02T06:58:24.614Z,9.747374
2023-02-02T06:59:24.792Z,9.747380
2023-02-02T07:00:24.634Z,9.747430
2023-02-02T07:01:24.664Z,9.747372
2023-02-02T07:02:24.620Z,9.747391
2023-02-02T07:03:24.563Z,9.747253
2023-02-02T07:04:24.574Z,9.747437
2023-02-02T07:05:25.121Z,9.747535
2023-02-02T07:06:24.555Z,9.747468
2023-02-02T07:07:24.553Z,9.747443
2023-02-02T07:08:24.552Z,9.747441
2023-02-02T07:09:24.640Z,9.747370
2023-02-02T07:11:12.672Z,9.747395
2023-02-02T07:11:25.539Z,9.747329
2023-02-02T07:12:24.505Z,9.747370
2023-02-02T07:13:24.505Z,9.747421
2023-02-02T07:14:24.499Z,9.747410
2023-02-02T07:15:24.876Z,9.747449
2023-02-02T07:16:24.527Z,9.747424
2023-02-02T07:17:24.491Z,9.747428
2023-02-02T07:18:24.478Z,9.747503
2023-02-02T07:19:24.477Z,9.747586
2023-02-02T07:20:24.485Z,9.747566
2023-02-02T07:21:24.442Z,9.747450
2023-02-02T07:22:24.432Z,9.747471
2023-02-02T07:23:24.429Z,9.747464
2023-02-02T07:24:24.437Z,9.747442
2023-02-02T07:25:24.775Z,9.747445
2023-02-02T07:26:24.478Z,9.747498
2023-02-02T07:27:24.395Z,9.747458
2023-02-02T07:28:24.392Z,9.747400
2023-02-02T07:29:24.491Z,9.747376
2023-02-02T07:30:24.422Z,9.747376
2023-02-02T07:31:24.380Z,9.747376
2023-02-02T07:32:24.366Z,9.747453
2023-02-02T07:33:24.350Z,9.747491
2023-02-02T07:34:24.342Z,9.747507
2023-02-02T07:35:24.654Z,9.747462
2023-02-02T07:36:24.350Z,9.747416
2023-02-02T07:37:24.314Z,9.747396
2023-02-02T07:38:24.311Z,9.747452
2023-02-02T07:39:24.303Z,9.747462
2023-02-02T07:40:24.320Z,9.747479
2023-02-02T07:41:24.289Z,9.747575
2023-02-02T07:42:24.285Z,9.747573
2023-02-02T07:43:24.271Z,9.747540
2023-02-02T07:44:24.264Z,9.747521
2023-02-02T07:45:24.607Z,9.747614
2023-02-02T07:46:24.325Z,9.747540
2023-02-02T07:47:24.239Z,9.747552
2023-02-02T07:48:24.229Z,9.747484
2023-02-02T07:49:24.222Z,9.747459
2023-02-02T07:50:24.240Z,9.747452
2023-02-02T07:51:24.212Z,9.747519
2023-02-02T07:52:24.207Z,9.747503
2023-02-02T07:53:24.211Z,9.747552
2023-02-02T07:54:24.194Z,9.747484
2023-02-02T07:55:24.210Z,9.747430
2023-02-02T07:56:24.181Z,9.747449
2023-02-02T07:57:24.165Z,9.747431
2023-02-02T07:58:24.155Z,9.747373
2023-02-02T07:59:24.160Z,9.747428
2023-02-02T08:00:24.215Z,9.747500
2023-02-02T08:01:24.185Z,9.747467
2023-02-02T08:02:24.125Z,9.747441
2023-02-02T08:03:24.119Z,9.747416
2023-02-02T08:04:24.110Z,9.747418
2023-02-02T08:05:24.527Z,9.747381
2023-02-02T08:06:24.091Z,9.747424
2023-02-02T08:07:24.131Z,9.747358
2023-02-02T08:08:24.087Z,9.747347
2023-02-02T08:09:24.170Z,9.747371
2023-02-02T08:10:24.231Z,9.747415
2023-02-02T08:11:24.080Z,9.747473
2023-02-02T08:12:24.885Z,9.747370
2023-02-02T08:13:25.042Z,9.747395
2023-02-02T08:14:24.031Z,9.747519
2023-02-02T08:15:24.300Z,9.747504
2023-02-02T08:16:24.067Z,9.747448
2023-02-02T08:17:24.015Z,9.747355
2023-02-02T08:18:24.010Z,9.747347
2023-02-02T08:19:23.998Z,9.747351
2023-02-02T08:20:24.017Z,9.747433
2023-02-02T08:21:23.990Z,9.747310
2023-02-02T08:22:24.027Z,9.747452
2023-02-02T08:23:24.013Z,9.747442
2023-02-02T08:24:23.969Z,9.747458
2023-02-02T08:25:24.437Z,9.747422
2023-02-02T08:26:23.983Z,9.747429
2023-02-02T08:27:23.936Z,9.747322
2023-02-02T08:28:23.940Z,9.747302
2023-02-02T08:29:23.926Z,9.747415
2023-02-02T08:30:23.977Z,9.747396
2023-02-02T08:31:23.935Z,9.747442
2023-02-02T08:32:23.909Z,9.747443
2023-02-02T08:33:23.913Z,9.747473
2023-02-02T08:34:23.895Z,9.747397
2023-02-02T08:35:24.194Z,9.747446
2023-02-02T08:36:24.883Z,9.747477
2023-02-02T08:37:23.872Z,9.747458
2023-02-02T08:38:23.881Z,9.747508
2023-02-02T08:39:23.854Z,9.747613
2023-02-02T08:40:24.006Z,9.747527
2023-02-02T08:41:23.856Z,9.747424
2023-02-02T08:42:23.824Z,9.747401
2023-02-02T08:43:23.815Z,9.747402
2023-02-02T08:44:23.811Z,9.747345
2023-02-02T08:46:07.745Z,9.747439
2023-02-02T08:46:24.819Z,9.747519
2023-02-02T08:47:23.799Z,9.747424
2023-02-02T08:48:23.784Z,9.747302
2023-02-02T08:49:23.773Z,9.747468
2023-02-02T08:50:23.784Z,9.747428
2023-02-02T08:51:24.766Z,9.747559
2023-02-02T08:52:25.689Z,9.747522
2023-02-02T08:53:24.730Z,9.747431
2023-02-02T08:54:24.741Z,9.747416
2023-02-02T08:55:24.153Z,9.747397
2023-02-02T08:56:23.727Z,9.747392
2023-02-02T08:57:23.706Z,9.747511
2023-02-02T08:58:23.709Z,9.747501
2023-02-02T08:59:23.706Z,9.747417
2023-02-02T09:00:23.687Z,9.747454
2023-02-02T09:01:23.799Z,9.747586
2023-02-02T09:02:23.724Z,9.747545
2023-02-02T09:03:23.666Z,9.747412
2023-02-02T09:04:23.684Z,9.747325
2023-02-02T09:05:24.187Z,9.747450
2023-02-02T09:06:23.668Z,9.747445
2023-02-02T09:07:23.640Z,9.747423
2023-02-02T09:08:23.655Z,9.747425
2023-02-02T09:09:23.645Z,9.747508
2023-02-02T09:10:23.641Z,9.747508
2023-02-02T09:11:23.633Z,9.747385
2023-02-02T09:12:23.603Z,9.747324
2023-02-02T09:13:23.591Z,9.747286
2023-02-02T09:14:23.591Z,9.747360
2023-02-02T09:15:23.906Z,9.747377
2023-02-02T09:16:23.633Z,9.747459
2023-02-02T09:17:23.556Z,9.747519
2023-02-02T09:18:24.674Z,9.747551
2023-02-02T09:19:23.555Z,9.747375
2023-02-02T09:20:23.544Z,9.747481
2023-02-02T09:21:23.561Z,9.747429
2023-02-02T09:22:23.527Z,9.747489
2023-02-02T09:23:23.521Z,9.747522
2023-02-02T09:24:23.522Z,9.747592
2023-02-02T09:25:23.865Z,9.747531
2023-02-02T09:26:23.581Z,9.747417
2023-02-02T09:27:23.493Z,9.747494
2023-02-02T09:28:23.490Z,9.747422
2023-02-02T09:29:23.485Z,9.747497
2023-02-02T09:30:23.485Z,9.747382
2023-02-02T09:31:23.553Z,9.747406
2023-02-02T09:32:23.449Z,9.747517
2023-02-02T09:33:23.442Z,9.747474
2023-02-02T09:34:23.452Z,9.747368
2023-02-02T09:35:23.824Z,9.747267
2023-02-02T09:36:23.452Z,9.747447
2023-02-02T09:37:23.414Z,9.747525
2023-02-02T09:38:23.406Z,9.747511
2023-02-02T09:39:23.400Z,9.747396
2023-02-02T09:40:23.429Z,9.747464
2023-02-02T09:41:23.409Z,9.747540
2023-02-02T09:42:23.390Z,9.747391
2023-02-02T09:43:23.379Z,9.747350
2023-02-02T09:44:23.359Z,9.747445
2023-02-02T09:45:23.879Z,9.747379
2023-02-02T09:46:25.780Z,9.747415
2023-02-02T09:47:23.346Z,9.747401
2023-02-02T09:48:23.330Z,9.747498
2023-02-02T09:49:23.331Z,9.747443
2023-02-02T09:50:23.318Z,9.747358
2023-02-02T09:51:23.494Z,9.747338
2023-02-02T09:52:23.304Z,9.747577
2023-02-02T09:53:23.296Z,9.747463
2023-02-02T09:54:23.288Z,9.747276
2023-02-02T09:55:23.666Z,9.747439
2023-02-02T09:56:23.303Z,9.747441
2023-02-02T09:57:23.315Z,9.747533
2023-02-02T09:58:23.254Z,9.747450
2023-02-02T09:59:24.581Z,9.747372
2023-02-02T10:00:24.238Z,9.747496
2023-02-02T10:01:23.313Z,9.747499
2023-02-02T10:02:23.238Z,9.747446
2023-02-02T10:03:23.218Z,9.747373
2023-02-02T10:04:23.218Z,9.747432
2023-02-02T10:05:23.622Z,9.747422
2023-02-02T10:06:23.224Z,9.747507
2023-02-02T10:07:23.216Z,9.747469
2023-02-02T10:08:34.428Z,9.747422
2023-02-02T10:09:25.220Z,9.747444
2023-02-02T10:10:23.197Z,9.747350
2023-02-02T10:11:23.169Z,9.747401
2023-02-02T10:12:23.183Z,9.747459
2023-02-02T10:13:23.141Z,9.747472
2023-02-02T10:14:23.187Z,9.747390
2023-02-02T10:15:23.590Z,9.747403
2023-02-02T10:16:23.145Z,9.747458
2023-02-02T10:17:23.308Z,9.747463
2023-02-02T10:18:23.147Z,9.747454
2023-02-02T10:19:23.107Z,9.747421
2023-02-02T10:20:23.334Z,9.747313
2023-02-02T10:21:23.087Z,9.747414
2023-02-02T10:22:23.116Z,9.747375
2023-02-02T10:23:23.078Z,9.747404
2023-02-02T10:24:23.070Z,9.747329
2023-02-02T10:25:23.156Z,9.747400
2023-02-02T10:26:23.167Z,9.747400
2023-02-02T10:27:23.161Z,9.747244
2023-02-02T10:28:23.039Z,9.747373
2023-02-02T10:29:23.039Z,9.747392
2023-02-02T10:30:23.411Z,9.747362
2023-02-02T10:31:23.080Z,9.747346
2023-02-02T10:32:23.215Z,9.747380
2023-02-02T10:33:22.999Z,9.747475
2023-02-02T10:34:23.049Z,9.747458
2023-02-02T10:35:23.085Z,9.747453
2023-02-02T10:36:22.983Z,9.747451
2023-02-02T10:37:23.008Z,9.747474
2023-02-02T10:38:22.975Z,9.747335
2023-02-02T10:39:22.966Z,9.747474
2023-02-02T10:40:23.017Z,9.747454
2023-02-02T10:41:22.951Z,9.747373
2023-02-02T10:42:22.976Z,9.747418
2023-02-02T10:43:22.937Z,9.747408
2023-02-02T10:44:22.926Z,9.747512
2023-02-02T10:45:22.912Z,9.747519
2023-02-02T10:46:23.015Z,9.747452
2023-02-02T10:47:22.914Z,9.747395
2023-02-02T10:48:22.930Z,9.747408
2023-02-02T10:49:22.940Z,9.747373
2023-02-02T10:50:23.225Z,9.747361
2023-02-02T10:51:22.881Z,9.747441
2023-02-02T10:52:22.879Z,9.747442
2023-02-02T10:53:22.895Z,9.747434
2023-02-02T10:54:22.853Z,9.747423
2023-02-02T10:55:22.848Z,9.747347
2023-02-02T10:56:22.834Z,9.747420
2023-02-02T10:57:22.833Z,9.747432
2023-02-02T10:58:56.633Z,9.747383
2023-02-02T10:59:22.887Z,9.747423
2023-02-02T11:00:23.480Z,9.747415
2023-02-02T11:01:23.995Z,9.747368
2023-02-02T11:02:22.841Z,9.747455
2023-02-02T11:03:22.834Z,9.747383
2023-02-02T11:04:22.787Z,9.747526
2023-02-02T11:05:22.799Z,9.747435
2023-02-02T11:06:22.773Z,9.747390
2023-02-02T11:07:22.784Z,9.747375
2023-02-02T11:08:22.807Z,9.747381
2023-02-02T11:09:22.757Z,9.747470
2023-02-02T11:10:22.946Z,9.747460
2023-02-02T11:11:22.748Z,9.747444
2023-02-02T11:12:22.736Z,9.747462
2023-02-02T11:13:22.774Z,9.747351
2023-02-02T11:14:22.727Z,9.747386
2023-02-02T11:15:22.691Z,9.747510
2023-02-02T11:16:22.841Z,9.747422
2023-02-02T11:17:22.708Z,9.747384
2023-02-02T11:18:22.725Z,9.747508
2023-02-02T11:19:22.693Z,9.747402
2023-02-02T11:20:22.829Z,9.747443
2023-02-02T11:21:22.671Z,9.747426
2023-02-02T11:22:22.647Z,9.747280
2023-02-02T11:23:22.685Z,9.747329
2023-02-02T11:24:22.647Z,9.747374
2023-02-02T11:25:22.650Z,9.747408
2023-02-02T11:26:22.638Z,9.747408
2023-02-02T11:27:22.601Z,9.747334
2023-02-02T11:28:22.659Z,9.747371
2023-02-02T11:29:22.589Z,9.747457
2023-02-02T11:30:22.881Z,9.747446
2023-02-02T11:31:22.675Z,9.747438
2023-02-02T11:32:22.576Z,9.747395
2023-02-02T11:33:22.591Z,9.747429
2023-02-02T11:34:22.560Z,9.747378
2023-02-02T11:35:22.550Z,9.747310
2023-02-02T11:36:22.586Z,9.747232
2023-02-02T11:37:22.537Z,9.747293
2023-02-02T11:38:22.575Z,9.747360
2023-02-02T11:39:22.525Z,9.747484
2023-02-02T11:40:22.568Z,9.747466
2023-02-02T11:41:22.518Z,9.747422
2023-02-02T11:42:22.518Z,9.747389
2023-02-02T11:43:22.489Z,9.747356
2023-02-02T11:44:22.547Z,9.747314
2023-02-02T11:45:22.478Z,9.747404
2023-02-02T11:46:22.519Z,9.747407
2023-02-02T11:47:22.455Z,9.747413
2023-02-02T11:48:22.467Z,9.747407
2023-02-02T11:49:22.492Z,9.747438
2023-02-02T11:50:22.724Z,9.747393
2023-02-02T11:51:22.537Z,9.747478
2023-02-02T11:52:22.467Z,9.747485
2023-02-02T11:53:22.442Z,9.747313
2023-02-02T11:54:22.489Z,9.747454
2023-02-02T11:55:22.456Z,9.747696
2023-02-02T11:56:22.407Z,9.747557
2023-02-02T11:57:22.397Z,9.747540